createdAt,value
2018-01-12T00:00:10.062Z,3.38
2018-01-12T00:03:19.602Z,3.35
2018-01-12T00:06:28.352Z,3.37
2018-01-12T00:09:42.772Z,3.36
2018-01-12T00:12:57.593Z,3.32
2018-01-12T00:16:07.743Z,3.33
2018-01-12T00:19:18.686Z,3.32
2018-01-12T00:22:31.914Z,3.31
2018-01-12T00:25:43.016Z,3.28
2018-01-12T00:28:52.985Z,3.30
2018-01-12T00:32:03.214Z,3.30
2018-01-12T00:35:11.401Z,3.26
2018-01-12T00:38:20.649Z,3.28
2018-01-12T00:41:32.638Z,3.27
2018-01-12T00:44:43.219Z,3.24
2018-01-12T00:47:52.084Z,3.26
2018-01-12T00:51:02.152Z,3.25
2018-01-12T00:54:14.768Z,3.27
2018-01-12T00:57:27.046Z,3.23
2018-01-12T01:00:35.667Z,3.20
2018-01-12T01:03:44.359Z,3.22
2018-01-12T01:06:57.110Z,3.22
2018-01-12T01:10:05.219Z,3.21
2018-01-12T01:13:16.515Z,3.22
2018-01-12T01:16:30.730Z,3.21
2018-01-12T01:19:39.954Z,3.19
2018-01-12T01:22:54.748Z,3.15
2018-01-12T01:26:07.315Z,3.18
2018-01-12T01:29:21.126Z,3.15
2018-01-12T01:32:32.671Z,3.15
2018-01-12T01:35:47.630Z,3.11
2018-01-12T01:38:56.354Z,3.13
2018-01-12T01:42:05.761Z,3.15
2018-01-12T01:45:13.490Z,3.12
2018-01-12T01:48:37.825Z,3.11
2018-01-12T01:51:52.819Z,3.04
2018-01-12T01:55:02.662Z,3.09
2018-01-12T01:58:12.050Z,3.07
2018-01-12T02:01:26.668Z,3.07
2018-01-12T02:04:38.841Z,3.05
2018-01-12T02:07:51.050Z,3.02
2018-01-12T02:11:02.352Z,3.04
2018-01-12T02:14:13.342Z,3.00
2018-01-12T02:17:29.446Z,3.00
2018-01-12T02:20:42.158Z,2.97
2018-01-12T02:23:52.324Z,2.99
2018-01-12T02:27:04.770Z,2.97
2018-01-12T02:30:17.638Z,2.97
2018-01-12T02:33:28.657Z,2.94
2018-01-12T02:36:37.902Z,2.97
2018-01-12T02:39:48.878Z,2.93
2018-01-12T02:42:58.890Z,2.94
2018-01-12T02:49:24.004Z,2.94
2018-01-12T02:52:52.815Z,2.90
2018-01-12T02:56:10.449Z,2.91
2018-01-12T02:59:21.028Z,2.91
2018-01-12T03:02:32.883Z,2.88
2018-01-12T03:05:45.643Z,2.91
2018-01-12T03:08:57.516Z,2.86
2018-01-12T03:12:08.078Z,2.83
2018-01-12T03:15:19.932Z,2.88
2018-01-12T03:18:31.110Z,2.87
2018-01-12T03:21:42.583Z,2.85
2018-01-12T03:24:53.393Z,2.85
2018-01-12T03:28:07.369Z,2.85
2018-01-12T03:31:21.013Z,2.83
2018-01-12T03:34:31.430Z,2.85
2018-01-12T03:37:41.222Z,2.86
2018-01-12T03:40:53.276Z,2.82
2018-01-12T03:44:05.748Z,2.77
2018-01-12T03:47:15.293Z,2.78
2018-01-12T03:50:28.381Z,2.81
2018-01-12T03:53:41.183Z,2.79
2018-01-12T03:56:56.856Z,2.79
2018-01-12T04:00:07.232Z,2.76
2018-01-12T04:03:17.432Z,2.81
2018-01-12T04:06:29.690Z,2.84
2018-01-12T04:09:38.372Z,2.83
2018-01-12T04:12:49.879Z,2.81
2018-01-12T04:16:00.296Z,2.79
2018-01-12T04:19:10.874Z,2.83
2018-01-12T04:22:21.238Z,2.84
2018-01-12T04:25:33.081Z,2.79
2018-01-12T04:28:42.676Z,2.76
2018-01-12T04:31:55.214Z,2.78
2018-01-12T04:35:08.496Z,2.73
2018-01-12T04:38:19.232Z,2.74
2018-01-12T04:41:29.237Z,2.75
2018-01-12T04:44:47.200Z,2.70
2018-01-12T04:47:57.572Z,2.72
2018-01-12T04:51:10.093Z,2.73
2018-01-12T04:54:20.746Z,2.73
2018-01-12T04:57:34.928Z,2.76
2018-01-12T05:00:46.428Z,2.71
2018-01-12T05:03:55.884Z,2.76
2018-01-12T05:07:03.776Z,2.74
2018-01-12T05:10:14.806Z,2.73
2018-01-12T05:13:32.829Z,2.75
2018-01-12T05:16:44.031Z,2.68
2018-01-12T05:19:57.077Z,2.70
2018-01-12T05:23:09.105Z,2.69
2018-01-12T05:26:20.270Z,2.67
2018-01-12T05:29:30.349Z,2.70
2018-01-12T05:32:39.124Z,2.71
2018-01-12T05:35:49.689Z,2.68
2018-01-12T05:38:58.850Z,2.66
2018-01-12T05:42:09.538Z,2.66
2018-01-12T05:45:21.608Z,2.68
2018-01-12T05:48:31.926Z,2.65
2018-01-12T05:51:42.192Z,2.67
2018-01-12T05:54:53.841Z,2.66
2018-01-12T05:58:05.280Z,2.64
2018-01-12T06:01:25.883Z,2.63
2018-01-12T06:04:45.837Z,2.60
2018-01-12T06:08:02.724Z,2.62
2018-01-12T06:11:14.469Z,2.63
2018-01-12T06:14:25.676Z,2.60
2018-01-12T06:17:37.175Z,2.59
2018-01-12T06:20:50.628Z,2.60
2018-01-12T06:24:01.047Z,2.59
2018-01-12T06:27:13.420Z,2.61
2018-01-12T06:30:22.544Z,2.60
2018-01-12T06:33:31.700Z,2.62
2018-01-12T06:36:39.762Z,2.59
2018-01-12T06:39:51.532Z,2.58
2018-01-12T06:43:01.772Z,2.61
2018-01-12T06:46:12.561Z,2.57
2018-01-12T06:49:23.186Z,2.61
2018-01-12T06:52:34.684Z,2.59
2018-01-12T06:55:46.826Z,2.61
2018-01-12T06:58:57.187Z,2.60
2018-01-12T07:02:08.195Z,2.64
2018-01-12T07:05:21.916Z,2.61
2018-01-12T07:08:31.901Z,2.58
2018-01-12T07:11:41.432Z,2.59
2018-01-12T07:14:54.500Z,2.58
2018-01-12T07:18:05.868Z,2.58
2018-01-12T07:21:26.566Z,2.58
2018-01-12T07:24:39.765Z,2.58
2018-01-12T07:27:54.021Z,2.56
2018-01-12T07:31:04.161Z,2.58
2018-01-12T07:34:15.461Z,2.54
2018-01-12T07:37:27.530Z,2.54
2018-01-12T07:40:36.707Z,2.56
2018-01-12T07:43:47.791Z,2.59
2018-01-12T07:46:58.487Z,2.60
2018-01-12T07:50:13.953Z,2.59
2018-01-12T07:53:25.879Z,2.58
2018-01-12T07:56:38.588Z,2.59
2018-01-12T07:59:52.087Z,2.59
2018-01-12T08:03:09.850Z,2.62
2018-01-12T08:06:17.475Z,2.59
2018-01-12T08:09:26.573Z,2.56
2018-01-12T08:12:37.025Z,2.62
2018-01-12T08:15:47.095Z,2.59
2018-01-12T08:18:56.748Z,2.57
2018-01-12T08:22:06.395Z,2.57
2018-01-12T08:25:31.021Z,2.62
2018-01-12T08:28:42.301Z,2.60
2018-01-12T08:31:54.412Z,2.60
2018-01-12T08:35:03.472Z,2.61
2018-01-12T08:38:13.944Z,2.62
2018-01-12T08:41:24.122Z,2.62
2018-01-12T08:44:33.025Z,2.61
2018-01-12T08:47:43.916Z,2.60
2018-01-12T08:50:54.384Z,2.61
2018-01-12T08:54:05.553Z,2.60
2018-01-12T08:57:16.929Z,2.62
2018-01-12T09:00:35.892Z,2.62
2018-01-12T09:03:48.357Z,2.63
2018-01-12T09:06:58.457Z,2.65
2018-01-12T09:10:10.252Z,2.73
2018-01-12T09:13:31.756Z,2.71
2018-01-12T09:16:40.933Z,2.72
2018-01-12T09:19:54.389Z,2.78
2018-01-12T09:26:36.576Z,2.70
2018-01-12T09:29:46.784Z,2.68
2018-01-12T09:33:04.312Z,2.70
2018-01-12T09:36:13.922Z,2.70
2018-01-12T09:39:32.780Z,2.68
2018-01-12T09:42:45.431Z,2.73
2018-01-12T09:45:56.890Z,2.69
2018-01-12T09:49:10.912Z,2.75
2018-01-12T09:52:25.219Z,2.70
2018-01-12T09:55:36.462Z,2.71
2018-01-12T09:58:52.308Z,2.72
2018-01-12T10:02:01.710Z,2.81
2018-01-12T10:05:15.176Z,2.83
2018-01-12T10:08:32.259Z,2.84
2018-01-12T10:11:43.731Z,2.81
2018-01-12T10:14:55.802Z,2.79
2018-01-12T10:18:12.169Z,2.84
2018-01-12T10:21:36.349Z,2.87
2018-01-12T10:24:46.834Z,2.81
2018-01-12T10:27:57.627Z,2.88
2018-01-12T10:31:05.458Z,2.86
2018-01-12T10:34:17.730Z,2.83
2018-01-12T10:37:29.242Z,2.80
2018-01-12T10:40:48.733Z,2.81
2018-01-12T10:44:03.632Z,2.80
2018-01-12T10:50:57.908Z,2.78
2018-01-12T10:54:12.221Z,2.77
2018-01-12T10:57:22.596Z,2.74
2018-01-12T11:00:35.685Z,2.77
2018-01-12T11:03:46.459Z,2.79
2018-01-12T11:06:57.264Z,2.78
2018-01-12T11:10:12.190Z,2.78
2018-01-12T11:13:24.918Z,2.77
2018-01-12T11:16:39.388Z,2.76
2018-01-12T11:19:52.572Z,2.79
2018-01-12T11:23:03.226Z,2.80
2018-01-12T11:26:15.850Z,2.84
2018-01-12T11:29:26.732Z,2.81
2018-01-12T11:32:40.166Z,2.80
2018-01-12T11:35:51.048Z,2.80
2018-01-12T11:39:03.039Z,2.81
2018-01-12T11:42:13.957Z,2.82
2018-01-12T11:45:23.419Z,2.80
2018-01-12T11:48:33.262Z,2.80
2018-01-12T11:51:47.408Z,2.83
2018-01-12T11:54:57.606Z,2.82
2018-01-12T11:58:09.241Z,2.80
2018-01-12T12:01:19.961Z,2.83
2018-01-12T12:04:32.087Z,2.82
2018-01-12T12:07:46.372Z,2.80
2018-01-12T12:10:58.349Z,2.87
2018-01-12T12:14:08.369Z,2.87
2018-01-12T12:17:20.646Z,2.86
2018-01-12T12:20:34.817Z,2.85
2018-01-12T12:23:46.672Z,2.83
2018-01-12T12:26:57.420Z,2.85
2018-01-12T12:30:07.217Z,2.85
2018-01-12T12:33:19.650Z,2.91
2018-01-12T12:39:49.919Z,2.88
2018-01-12T12:43:00.295Z,2.86
2018-01-12T12:46:10.557Z,2.90
2018-01-12T12:49:21.562Z,2.94
2018-01-12T12:52:31.316Z,2.89
2018-01-12T12:55:45.326Z,2.88
2018-01-12T12:58:56.468Z,2.87
2018-01-12T13:02:07.294Z,2.87
2018-01-12T13:05:17.170Z,2.87
2018-01-12T13:08:28.288Z,2.84
2018-01-12T13:11:44.522Z,2.88
2018-01-12T13:14:55.541Z,2.86
2018-01-12T13:18:04.651Z,2.87
2018-01-12T13:21:15.688Z,2.89
2018-01-12T13:24:27.457Z,2.88
2018-01-12T13:27:36.310Z,2.89
2018-01-12T13:30:49.013Z,2.88
2018-01-12T13:33:59.208Z,2.88
2018-01-12T13:37:09.885Z,2.90
2018-01-12T13:40:32.075Z,2.94
2018-01-12T13:43:44.424Z,2.89
2018-01-12T13:46:58.857Z,2.88
2018-01-12T13:50:09.115Z,2.87
2018-01-12T13:53:19.109Z,2.86
2018-01-12T13:56:28.213Z,2.84
2018-01-12T13:59:39.249Z,2.87
2018-01-12T14:02:48.985Z,2.86
2018-01-12T14:05:58.920Z,2.86
2018-01-12T14:09:10.692Z,2.86
2018-01-12T14:12:20.390Z,2.86
2018-01-12T14:15:30.469Z,2.86
2018-01-12T14:18:41.509Z,2.83
2018-01-12T14:21:53.495Z,2.81
2018-01-12T14:25:04.941Z,2.81
2018-01-12T14:28:17.533Z,2.79
2018-01-12T14:31:29.138Z,2.81
2018-01-12T14:34:39.469Z,2.84
2018-01-12T14:37:50.952Z,2.84
2018-01-12T14:41:01.833Z,2.82
2018-01-12T14:44:15.092Z,2.82
2018-01-12T14:47:25.268Z,2.79
2018-01-12T14:50:35.277Z,2.76
2018-01-12T14:53:46.650Z,2.76
2018-01-12T14:56:56.640Z,2.76
2018-01-12T15:00:08.466Z,2.76
2018-01-12T15:03:24.852Z,2.74
2018-01-12T15:06:36.016Z,2.76
2018-01-12T15:09:47.778Z,2.73
2018-01-12T15:12:59.238Z,2.74
2018-01-12T15:16:09.685Z,2.75
2018-01-12T15:19:24.162Z,2.73
2018-01-12T15:22:37.417Z,2.71
2018-01-12T15:25:49.778Z,2.73
2018-01-12T15:29:01.045Z,2.72
2018-01-12T15:32:15.536Z,2.73
2018-01-12T15:35:27.320Z,2.67
2018-01-12T15:38:45.498Z,2.70
2018-01-12T15:41:59.912Z,2.70
2018-01-12T15:45:11.582Z,2.68
2018-01-12T15:48:20.904Z,2.71
2018-01-12T15:51:44.788Z,2.70
2018-01-12T15:55:05.807Z,2.68
2018-01-12T15:58:28.739Z,2.69
2018-01-12T16:01:58.282Z,2.72
2018-01-12T16:05:12.747Z,2.66
2018-01-12T16:08:30.229Z,2.65
2018-01-12T16:11:51.174Z,2.70
2018-01-12T16:15:11.720Z,2.65
2018-01-12T16:18:34.736Z,2.62
2018-01-12T16:22:00.224Z,2.62
2018-01-12T16:25:18.829Z,2.65
2018-01-12T16:28:47.879Z,2.65
2018-01-12T16:32:07.626Z,2.60
2018-01-12T16:35:25.611Z,2.63
2018-01-12T16:38:44.735Z,2.62
2018-01-12T16:45:39.840Z,2.60
2018-01-12T16:49:20.000Z,2.60
2018-01-12T16:56:08.500Z,2.58
2018-01-12T16:59:47.194Z,2.60
2018-01-12T17:03:03.527Z,2.55
2018-01-12T17:06:28.849Z,2.56
2018-01-12T17:09:52.627Z,2.56
2018-01-12T17:13:21.863Z,2.60
2018-01-12T17:16:42.505Z,2.53
2018-01-12T17:30:41.781Z,2.48
2018-01-12T17:34:09.915Z,2.51
2018-01-12T17:37:31.349Z,2.49
2018-01-12T17:40:50.273Z,2.50
2018-01-12T17:44:17.960Z,2.50
2018-01-12T17:47:45.146Z,2.43
2018-01-12T17:51:10.095Z,2.45
2018-01-12T17:54:28.471Z,2.46
2018-01-12T17:57:50.669Z,2.44
2018-01-12T18:01:24.738Z,2.44
2018-01-12T18:04:45.095Z,2.44
2018-01-12T18:08:16.579Z,2.43
2018-01-12T18:18:54.183Z,2.43
2018-01-12T18:22:16.804Z,2.41
2018-01-12T18:25:26.773Z,2.38
2018-01-12T18:28:45.257Z,2.39
2018-01-12T18:32:06.846Z,2.37
2018-01-12T18:35:41.013Z,2.36
2018-01-12T18:39:05.635Z,2.38
2018-01-12T18:42:26.606Z,2.39
2018-01-12T18:46:00.499Z,2.39
2018-01-12T18:49:23.067Z,2.36
2018-01-12T18:52:39.395Z,2.30
2018-01-12T18:56:11.332Z,2.33
2018-01-12T18:59:41.748Z,2.36
2018-01-12T19:03:05.469Z,2.35
2018-01-12T19:06:45.791Z,2.37
2018-01-12T19:10:09.087Z,2.33
2018-01-12T19:13:39.100Z,2.38
2018-01-12T19:17:13.913Z,2.32
2018-01-12T19:24:07.411Z,2.33
2018-01-12T19:34:49.647Z,2.28
2018-01-12T19:38:21.017Z,2.32
2018-01-12T19:45:05.125Z,2.27
2018-01-12T19:48:18.345Z,2.29
2018-01-12T19:51:46.040Z,2.26
2018-01-12T19:55:13.671Z,2.25
2018-01-12T19:58:31.832Z,2.24
2018-01-12T20:02:00.760Z,2.23
2018-01-12T20:05:21.594Z,2.20
2018-01-12T20:08:50.910Z,2.19
2018-01-12T20:15:58.675Z,2.16
2018-01-12T20:19:23.431Z,2.15
2018-01-12T20:22:40.474Z,2.18
2018-01-12T20:25:52.785Z,2.14
2018-01-12T20:29:04.972Z,2.13
2018-01-12T20:32:17.413Z,2.14
2018-01-12T20:35:26.425Z,2.13
2018-01-12T20:38:48.453Z,2.11
2018-01-12T20:45:40.724Z,2.08
2018-01-12T20:49:26.980Z,2.10
2018-01-12T20:52:47.524Z,2.11
2018-01-12T20:55:58.469Z,2.06
2018-01-12T20:59:10.810Z,2.11
2018-01-12T21:02:24.513Z,2.12
2018-01-12T21:05:34.467Z,2.11
2018-01-12T21:08:43.388Z,2.09
2018-01-12T21:12:04.512Z,2.10
2018-01-12T21:15:14.258Z,2.12
2018-01-12T21:18:26.629Z,2.07
2018-01-12T21:21:36.661Z,2.05
2018-01-12T21:24:48.027Z,2.05
2018-01-12T21:28:15.204Z,2.04
2018-01-12T21:31:23.502Z,2.09
2018-01-12T21:34:37.234Z,2.11
2018-01-12T21:37:46.837Z,2.11
2018-01-12T21:40:59.937Z,2.09
2018-01-12T21:44:09.622Z,2.06
2018-01-12T21:47:21.789Z,2.05
2018-01-12T21:50:37.295Z,2.10
2018-01-12T21:53:49.284Z,2.07
2018-01-12T21:56:59.941Z,2.06
2018-01-12T22:00:10.872Z,2.07
2018-01-12T22:03:20.381Z,2.07
2018-01-12T22:06:30.290Z,2.08
2018-01-12T22:09:44.399Z,2.08
2018-01-12T22:13:09.578Z,2.14
2018-01-12T22:16:19.178Z,2.10
2018-01-12T22:19:34.672Z,2.15
2018-01-12T22:22:46.703Z,2.12
2018-01-12T22:26:00.573Z,2.11
2018-01-12T22:29:07.437Z,2.10
2018-01-12T22:32:17.314Z,2.10
2018-01-12T22:35:27.077Z,2.19
2018-01-12T22:38:39.768Z,2.19
2018-01-12T22:41:51.368Z,2.12
2018-01-12T22:45:05.011Z,2.20
2018-01-12T22:48:12.435Z,2.14
2018-01-12T22:51:20.252Z,2.09
2018-01-12T22:54:29.068Z,2.12
2018-01-12T22:57:41.650Z,2.12
2018-01-12T23:04:17.673Z,2.08
2018-01-12T23:07:28.376Z,2.09
2018-01-12T23:10:38.188Z,2.14
2018-01-12T23:13:48.433Z,2.20
2018-01-12T23:17:01.277Z,2.16
2018-01-12T23:20:11.557Z,2.11
2018-01-12T23:23:24.471Z,2.16
2018-01-12T23:29:55.750Z,2.19
2018-01-12T23:33:03.467Z,2.18
2018-01-12T23:36:21.504Z,2.13
2018-01-12T23:43:01.038Z,2.15
2018-01-12T23:46:09.851Z,2.12
2018-01-12T23:49:19.451Z,2.11
2018-01-12T23:52:29.710Z,2.13
2018-01-12T23:55:43.456Z,2.14
2018-01-12T23:58:57.331Z,2.14
